sensor_id;sensor_type;location;lat;lon;timestamp;temperature;humidity
29547;DHT22;40782;47.264;11.330;2023-06-14T00:00:28;16.10;57.10
29547;DHT22;40782;47.264;11.330;2023-06-14T00:02:56;16.20;57.50
29547;DHT22;40782;47.264;11.330;2023-06-14T00:05:23;16.10;57.80
29547;DHT22;40782;47.264;11.330;2023-06-14T00:07:50;16.10;58.40
29547;DHT22;40782;47.264;11.330;2023-06-14T00:10:19;16.00;58.70
29547;DHT22;40782;47.264;11.330;2023-06-14T00:12:46;16.00;58.50
29547;DHT22;40782;47.264;11.330;2023-06-14T00:15:14;15.80;59.10
29547;DHT22;40782;47.264;11.330;2023-06-14T00:17:41;15.80;60.40
29547;DHT22;40782;47.264;11.330;2023-06-14T00:20:11;15.70;59.80
29547;DHT22;40782;47.264;11.330;2023-06-14T00:22:38;15.50;60.40
29547;DHT22;40782;47.264;11.330;2023-06-14T00:25:05;15.50;60.40
29547;DHT22;40782;47.264;11.330;2023-06-14T00:27:32;15.50;60.50
29547;DHT22;40782;47.264;11.330;2023-06-14T00:29:59;15.50;60.80
29547;DHT22;40782;47.264;11.330;2023-06-14T00:32:28;15.40;60.00
29547;DHT22;40782;47.264;11.330;2023-06-14T00:34:55;15.40;60.30
29547;DHT22;40782;47.264;11.330;2023-06-14T00:37:22;15.40;60.50
29547;DHT22;40782;47.264;11.330;2023-06-14T00:39:49;15.30;60.50
29547;DHT22;40782;47.264;11.330;2023-06-14T00:42:23;15.30;61.00
29547;DHT22;40782;47.264;11.330;2023-06-14T00:44:50;15.30;60.70
29547;DHT22;40782;47.264;11.330;2023-06-14T00:47:17;15.20;61.00
29547;DHT22;40782;47.264;11.330;2023-06-14T00:49:46;15.20;61.50
29547;DHT22;40782;47.264;11.330;2023-06-14T00:52:14;15.10;61.70
29547;DHT22;40782;47.264;11.330;2023-06-14T00:54:42;15.10;61.90
29547;DHT22;40782;47.264;11.330;2023-06-14T00:57:09;15.00;62.00
29547;DHT22;40782;47.264;11.330;2023-06-14T00:59:38;15.00;61.90
29547;DHT22;40782;47.264;11.330;2023-06-14T01:02:07;14.90;62.20
29547;DHT22;40782;47.264;11.330;2023-06-14T01:04:34;14.80;62.10
29547;DHT22;40782;47.264;11.330;2023-06-14T01:07:06;14.70;62.60
29547;DHT22;40782;47.264;11.330;2023-06-14T01:09:43;14.70;63.20
29547;DHT22;40782;47.264;11.330;2023-06-14T01:12:14;14.70;62.80
29547;DHT22;40782;47.264;11.330;2023-06-14T01:14:42;14.70;62.30
29547;DHT22;40782;47.264;11.330;2023-06-14T01:17:09;14.70;62.60
29547;DHT22;40782;47.264;11.330;2023-06-14T01:19:42;14.60;62.30
29547;DHT22;40782;47.264;11.330;2023-06-14T01:22:11;14.60;62.50
29547;DHT22;40782;47.264;11.330;2023-06-14T01:24:40;14.60;62.70
29547;DHT22;40782;47.264;11.330;2023-06-14T01:27:10;14.60;62.80
29547;DHT22;40782;47.264;11.330;2023-06-14T01:29:38;14.60;63.70
29547;DHT22;40782;47.264;11.330;2023-06-14T01:32:05;14.70;63.70
29547;DHT22;40782;47.264;11.330;2023-06-14T01:34:33;14.70;62.80
29547;DHT22;40782;47.264;11.330;2023-06-14T01:37:00;14.70;63.00
29547;DHT22;40782;47.264;11.330;2023-06-14T01:39:28;14.70;63.40
29547;DHT22;40782;47.264;11.330;2023-06-14T01:41:57;14.60;64.10
29547;DHT22;40782;47.264;11.330;2023-06-14T01:44:24;14.60;64.60
29547;DHT22;40782;47.264;11.330;2023-06-14T01:46:52;14.60;65.20
29547;DHT22;40782;47.264;11.330;2023-06-14T01:49:19;14.60;65.00
29547;DHT22;40782;47.264;11.330;2023-06-14T01:51:46;14.70;64.60
29547;DHT22;40782;47.264;11.330;2023-06-14T01:54:13;14.80;63.90
29547;DHT22;40782;47.264;11.330;2023-06-14T01:56:40;14.90;64.00
29547;DHT22;40782;47.264;11.330;2023-06-14T01:59:09;14.80;64.30
29547;DHT22;40782;47.264;11.330;2023-06-14T02:01:36;14.70;64.40
29547;DHT22;40782;47.264;11.330;2023-06-14T02:04:03;14.60;64.10
29547;DHT22;40782;47.264;11.330;2023-06-14T02:06:30;14.60;64.00
29547;DHT22;40782;47.264;11.330;2023-06-14T02:08:58;14.50;64.20
29547;DHT22;40782;47.264;11.330;2023-06-14T02:11:25;14.40;64.70
29547;DHT22;40782;47.264;11.330;2023-06-14T02:13:52;14.30;64.40
29547;DHT22;40782;47.264;11.330;2023-06-14T02:16:22;14.30;65.10
29547;DHT22;40782;47.264;11.330;2023-06-14T02:18:50;14.20;66.40
29547;DHT22;40782;47.264;11.330;2023-06-14T02:21:17;14.20;66.80
29547;DHT22;40782;47.264;11.330;2023-06-14T02:23:44;14.10;67.30
29547;DHT22;40782;47.264;11.330;2023-06-14T02:26:11;14.10;67.70
29547;DHT22;40782;47.264;11.330;2023-06-14T02:28:38;14.00;68.10
29547;DHT22;40782;47.264;11.330;2023-06-14T02:31:05;14.00;67.50
29547;DHT22;40782;47.264;11.330;2023-06-14T02:33:34;14.10;67.60
29547;DHT22;40782;47.264;11.330;2023-06-14T02:36:01;14.10;67.90
29547;DHT22;40782;47.264;11.330;2023-06-14T02:38:29;14.00;68.10
29547;DHT22;40782;47.264;11.330;2023-06-14T02:40:56;13.90;68.30
29547;DHT22;40782;47.264;11.330;2023-06-14T02:43:24;13.90;68.20
29547;DHT22;40782;47.264;11.330;2023-06-14T02:45:51;13.80;68.50
29547;DHT22;40782;47.264;11.330;2023-06-14T02:48:18;13.80;69.20
29547;DHT22;40782;47.264;11.330;2023-06-14T02:50:47;13.70;70.00
29547;DHT22;40782;47.264;11.330;2023-06-14T02:53:14;13.70;70.20
29547;DHT22;40782;47.264;11.330;2023-06-14T02:55:41;13.60;70.80
29547;DHT22;40782;47.264;11.330;2023-06-14T02:58:08;13.60;70.60
29547;DHT22;40782;47.264;11.330;2023-06-14T03:00:35;13.60;71.00
29547;DHT22;40782;47.264;11.330;2023-06-14T03:03:03;13.60;71.50
29547;DHT22;40782;47.264;11.330;2023-06-14T03:05:40;13.50;71.40
29547;DHT22;40782;47.264;11.330;2023-06-14T03:08:13;13.50;72.50
29547;DHT22;40782;47.264;11.330;2023-06-14T03:10:42;13.40;71.70
29547;DHT22;40782;47.264;11.330;2023-06-14T03:13:09;13.30;70.80
29547;DHT22;40782;47.264;11.330;2023-06-14T03:15:37;13.20;71.60
29547;DHT22;40782;47.264;11.330;2023-06-14T03:18:07;13.20;71.80
29547;DHT22;40782;47.264;11.330;2023-06-14T03:20:34;13.20;72.10
29547;DHT22;40782;47.264;11.330;2023-06-14T03:23:01;13.10;72.30
29547;DHT22;40782;47.264;11.330;2023-06-14T03:25:30;13.10;72.40
29547;DHT22;40782;47.264;11.330;2023-06-14T03:28:01;13.00;72.50
29547;DHT22;40782;47.264;11.330;2023-06-14T03:30:29;13.00;72.70
29547;DHT22;40782;47.264;11.330;2023-06-14T03:32:56;13.00;72.70
29547;DHT22;40782;47.264;11.330;2023-06-14T03:35:23;13.00;72.70
29547;DHT22;40782;47.264;11.330;2023-06-14T03:37:50;13.00;72.70
29547;DHT22;40782;47.264;11.330;2023-06-14T03:40:18;13.00;72.40
29547;DHT22;40782;47.264;11.330;2023-06-14T03:42:47;13.00;73.40
29547;DHT22;40782;47.264;11.330;2023-06-14T03:45:14;13.10;72.70
29547;DHT22;40782;47.264;11.330;2023-06-14T03:47:41;13.20;71.90
29547;DHT22;40782;47.264;11.330;2023-06-14T03:50:08;13.30;71.20
29547;DHT22;40782;47.264;11.330;2023-06-14T03:52:35;13.40;71.60
29547;DHT22;40782;47.264;11.330;2023-06-14T03:55:02;13.50;71.20
29547;DHT22;40782;47.264;11.330;2023-06-14T03:57:30;13.50;70.70
29547;DHT22;40782;47.264;11.330;2023-06-14T03:59:58;13.50;70.90
29547;DHT22;40782;47.264;11.330;2023-06-14T04:02:25;13.50;70.90
29547;DHT22;40782;47.264;11.330;2023-06-14T04:04:54;13.60;71.00
29547;DHT22;40782;47.264;11.330;2023-06-14T04:07:21;13.50;71.20
29547;DHT22;40782;47.264;11.330;2023-06-14T04:09:49;13.60;70.70
29547;DHT22;40782;47.264;11.330;2023-06-14T04:12:16;13.70;70.10
29547;DHT22;40782;47.264;11.330;2023-06-14T04:14:43;13.70;70.50
29547;DHT22;40782;47.264;11.330;2023-06-14T04:17:11;13.70;70.50
29547;DHT22;40782;47.264;11.330;2023-06-14T04:19:38;13.70;70.20
29547;DHT22;40782;47.264;11.330;2023-06-14T04:22:05;13.70;70.90
29547;DHT22;40782;47.264;11.330;2023-06-14T04:24:32;13.70;71.10
29547;DHT22;40782;47.264;11.330;2023-06-14T04:27:00;13.70;71.50
29547;DHT22;40782;47.264;11.330;2023-06-14T04:29:27;13.80;71.00
29547;DHT22;40782;47.264;11.330;2023-06-14T04:31:55;13.70;71.70
29547;DHT22;40782;47.264;11.330;2023-06-14T04:34:25;13.70;72.50
29547;DHT22;40782;47.264;11.330;2023-06-14T04:36:55;13.70;73.40
29547;DHT22;40782;47.264;11.330;2023-06-14T04:39:24;13.70;73.60
29547;DHT22;40782;47.264;11.330;2023-06-14T04:41:51;13.90;72.90
29547;DHT22;40782;47.264;11.330;2023-06-14T04:44:22;14.00;72.40
29547;DHT22;40782;47.264;11.330;2023-06-14T04:46:55;14.00;72.10
29547;DHT22;40782;47.264;11.330;2023-06-14T04:49:25;14.10;72.00
29547;DHT22;40782;47.264;11.330;2023-06-14T04:51:52;14.30;72.60
29547;DHT22;40782;47.264;11.330;2023-06-14T04:54:23;14.30;73.30
29547;DHT22;40782;47.264;11.330;2023-06-14T04:56:50;14.20;73.00
29547;DHT22;40782;47.264;11.330;2023-06-14T04:59:18;14.10;74.40
29547;DHT22;40782;47.264;11.330;2023-06-14T05:01:45;14.10;75.60
29547;DHT22;40782;47.264;11.330;2023-06-14T05:04:13;14.10;73.30
29547;DHT22;40782;47.264;11.330;2023-06-14T05:06:42;14.10;74.50
29547;DHT22;40782;47.264;11.330;2023-06-14T05:09:10;14.20;72.40
29547;DHT22;40782;47.264;11.330;2023-06-14T05:11:37;14.20;72.40
29547;DHT22;40782;47.264;11.330;2023-06-14T05:14:04;14.30;72.60
29547;DHT22;40782;47.264;11.330;2023-06-14T05:16:31;14.30;74.30
29547;DHT22;40782;47.264;11.330;2023-06-14T05:18:59;14.40;75.50
29547;DHT22;40782;47.264;11.330;2023-06-14T05:21:26;14.50;75.60
29547;DHT22;40782;47.264;11.330;2023-06-14T05:23:55;14.50;76.10
29547;DHT22;40782;47.264;11.330;2023-06-14T05:26:22;14.60;75.80
29547;DHT22;40782;47.264;11.330;2023-06-14T05:28:54;14.70;74.70
29547;DHT22;40782;47.264;11.330;2023-06-14T05:31:22;14.80;73.70
29547;DHT22;40782;47.264;11.330;2023-06-14T05:33:49;14.70;73.60
29547;DHT22;40782;47.264;11.330;2023-06-14T05:36:16;14.80;73.70
29547;DHT22;40782;47.264;11.330;2023-06-14T05:38:44;14.90;74.50
29547;DHT22;40782;47.264;11.330;2023-06-14T05:41:13;14.90;75.10
29547;DHT22;40782;47.264;11.330;2023-06-14T05:43:40;15.00;74.20
29547;DHT22;40782;47.264;11.330;2023-06-14T05:46:07;15.00;74.30
29547;DHT22;40782;47.264;11.330;2023-06-14T05:48:35;15.10;71.40
29547;DHT22;40782;47.264;11.330;2023-06-14T05:51:02;15.20;72.40
29547;DHT22;40782;47.264;11.330;2023-06-14T05:53:29;15.30;72.40
29547;DHT22;40782;47.264;11.330;2023-06-14T05:55:56;15.30;72.20
29547;DHT22;40782;47.264;11.330;2023-06-14T05:58:25;15.40;72.70
29547;DHT22;40782;47.264;11.330;2023-06-14T06:00:52;15.40;71.60
29547;DHT22;40782;47.264;11.330;2023-06-14T06:03:20;15.40;70.30
29547;DHT22;40782;47.264;11.330;2023-06-14T06:05:48;15.40;71.20
29547;DHT22;40782;47.264;11.330;2023-06-14T06:08:15;15.40;72.00
29547;DHT22;40782;47.264;11.330;2023-06-14T06:10:42;15.50;70.20
29547;DHT22;40782;47.264;11.330;2023-06-14T06:13:10;15.50;71.00
29547;DHT22;40782;47.264;11.330;2023-06-14T06:15:38;15.50;70.00
29547;DHT22;40782;47.264;11.330;2023-06-14T06:18:05;15.50;69.70
29547;DHT22;40782;47.264;11.330;2023-06-14T06:20:33;15.50;68.00
29547;DHT22;40782;47.264;11.330;2023-06-14T06:23:00;15.60;69.60
29547;DHT22;40782;47.264;11.330;2023-06-14T06:25:27;15.60;69.90
29547;DHT22;40782;47.264;11.330;2023-06-14T06:27:54;15.70;67.90
29547;DHT22;40782;47.264;11.330;2023-06-14T06:30:22;15.80;67.50
29547;DHT22;40782;47.264;11.330;2023-06-14T06:32:50;15.80;68.80
29547;DHT22;40782;47.264;11.330;2023-06-14T06:35:18;16.00;68.80
29547;DHT22;40782;47.264;11.330;2023-06-14T06:37:45;16.10;67.80
29547;DHT22;40782;47.264;11.330;2023-06-14T06:40:12;16.20;68.70
29547;DHT22;40782;47.264;11.330;2023-06-14T06:42:39;16.30;67.60
29547;DHT22;40782;47.264;11.330;2023-06-14T06:45:07;16.40;67.50
29547;DHT22;40782;47.264;11.330;2023-06-14T06:47:34;16.40;65.30
29547;DHT22;40782;47.264;11.330;2023-06-14T06:50:02;16.40;65.50
29547;DHT22;40782;47.264;11.330;2023-06-14T06:52:30;16.50;66.10
29547;DHT22;40782;47.264;11.330;2023-06-14T06:54:57;16.60;65.90
29547;DHT22;40782;47.264;11.330;2023-06-14T06:57:24;16.70;67.00
29547;DHT22;40782;47.264;11.330;2023-06-14T06:59:51;16.70;66.10
29547;DHT22;40782;47.264;11.330;2023-06-14T07:02:18;16.80;65.20
29547;DHT22;40782;47.264;11.330;2023-06-14T07:04:45;16.90;65.10
29547;DHT22;40782;47.264;11.330;2023-06-14T07:07:13;16.90;66.30
29547;DHT22;40782;47.264;11.330;2023-06-14T07:09:40;16.90;66.20
29547;DHT22;40782;47.264;11.330;2023-06-14T07:12:08;16.90;66.80
29547;DHT22;40782;47.264;11.330;2023-06-14T07:14:36;17.10;65.00
29547;DHT22;40782;47.264;11.330;2023-06-14T07:17:03;17.10;66.40
29547;DHT22;40782;47.264;11.330;2023-06-14T07:19:30;17.20;66.10
29547;DHT22;40782;47.264;11.330;2023-06-14T07:21:57;17.40;62.70
29547;DHT22;40782;47.264;11.330;2023-06-14T07:24:26;17.50;63.50
29547;DHT22;40782;47.264;11.330;2023-06-14T07:26:53;17.50;64.30
29547;DHT22;40782;47.264;11.330;2023-06-14T07:29:21;17.50;64.30
29547;DHT22;40782;47.264;11.330;2023-06-14T07:31:48;17.70;63.70
29547;DHT22;40782;47.264;11.330;2023-06-14T07:34:15;17.80;62.80
29547;DHT22;40782;47.264;11.330;2023-06-14T07:36:42;18.00;62.60
29547;DHT22;40782;47.264;11.330;2023-06-14T07:39:10;18.10;62.00
29547;DHT22;40782;47.264;11.330;2023-06-14T07:41:38;18.10;61.70
29547;DHT22;40782;47.264;11.330;2023-06-14T07:44:05;18.30;59.70
29547;DHT22;40782;47.264;11.330;2023-06-14T07:46:32;18.30;59.60
29547;DHT22;40782;47.264;11.330;2023-06-14T07:49:00;18.40;60.70
29547;DHT22;40782;47.264;11.330;2023-06-14T07:51:27;18.40;59.00
29547;DHT22;40782;47.264;11.330;2023-06-14T07:53:54;18.50;57.80
29547;DHT22;40782;47.264;11.330;2023-06-14T07:56:22;18.60;57.90
29547;DHT22;40782;47.264;11.330;2023-06-14T07:58:50;18.60;59.70
29547;DHT22;40782;47.264;11.330;2023-06-14T08:01:17;18.70;58.70
29547;DHT22;40782;47.264;11.330;2023-06-14T08:03:45;18.80;58.10
29547;DHT22;40782;47.264;11.330;2023-06-14T08:06:12;18.90;57.50
29547;DHT22;40782;47.264;11.330;2023-06-14T08:08:39;19.00;57.90
29547;DHT22;40782;47.264;11.330;2023-06-14T08:11:06;19.10;56.00
29547;DHT22;40782;47.264;11.330;2023-06-14T08:13:33;19.00;56.10
29547;DHT22;40782;47.264;11.330;2023-06-14T08:16:02;19.10;56.50
29547;DHT22;40782;47.264;11.330;2023-06-14T08:18:30;19.20;55.20
29547;DHT22;40782;47.264;11.330;2023-06-14T08:20:57;19.20;55.90
29547;DHT22;40782;47.264;11.330;2023-06-14T08:23:24;19.30;56.80
29547;DHT22;40782;47.264;11.330;2023-06-14T08:25:51;19.40;52.00
29547;DHT22;40782;47.264;11.330;2023-06-14T08:28:18;19.50;50.80
29547;DHT22;40782;47.264;11.330;2023-06-14T08:30:46;19.50;51.70
29547;DHT22;40782;47.264;11.330;2023-06-14T08:33:14;19.50;53.00
29547;DHT22;40782;47.264;11.330;2023-06-14T08:35:41;19.70;54.70
29547;DHT22;40782;47.264;11.330;2023-06-14T08:38:08;19.80;53.80
29547;DHT22;40782;47.264;11.330;2023-06-14T08:40:36;19.80;52.20
29547;DHT22;40782;47.264;11.330;2023-06-14T08:43:03;19.70;52.10
29547;DHT22;40782;47.264;11.330;2023-06-14T08:45:31;19.80;54.30
29547;DHT22;40782;47.264;11.330;2023-06-14T08:47:58;20.00;53.40
29547;DHT22;40782;47.264;11.330;2023-06-14T08:50:28;20.10;52.30
29547;DHT22;40782;47.264;11.330;2023-06-14T08:52:57;20.10;53.40
29547;DHT22;40782;47.264;11.330;2023-06-14T08:55:27;20.20;55.50
29547;DHT22;40782;47.264;11.330;2023-06-14T08:57:55;20.30;52.80
29547;DHT22;40782;47.264;11.330;2023-06-14T09:00:24;20.40;52.30
29547;DHT22;40782;47.264;11.330;2023-06-14T09:02:52;20.50;53.50
29547;DHT22;40782;47.264;11.330;2023-06-14T09:05:23;20.70;54.50
29547;DHT22;40782;47.264;11.330;2023-06-14T09:07:51;20.80;51.80
29547;DHT22;40782;47.264;11.330;2023-06-14T09:10:20;20.80;52.90
29547;DHT22;40782;47.264;11.330;2023-06-14T09:12:47;20.90;52.10
29547;DHT22;40782;47.264;11.330;2023-06-14T09:15:14;21.10;50.90
29547;DHT22;40782;47.264;11.330;2023-06-14T09:17:42;21.10;51.20
29547;DHT22;40782;47.264;11.330;2023-06-14T09:20:09;21.20;50.30
29547;DHT22;40782;47.264;11.330;2023-06-14T09:22:39;21.30;51.10
29547;DHT22;40782;47.264;11.330;2023-06-14T09:25:08;21.40;50.00
29547;DHT22;40782;47.264;11.330;2023-06-14T09:27:37;21.50;50.60
29547;DHT22;40782;47.264;11.330;2023-06-14T09:30:08;21.60;50.70
29547;DHT22;40782;47.264;11.330;2023-06-14T09:32:36;21.70;49.70
29547;DHT22;40782;47.264;11.330;2023-06-14T09:35:03;21.70;50.50
29547;DHT22;40782;47.264;11.330;2023-06-14T09:37:31;21.90;49.60
29547;DHT22;40782;47.264;11.330;2023-06-14T09:39:58;22.00;48.80
29547;DHT22;40782;47.264;11.330;2023-06-14T09:42:27;22.10;49.70
29547;DHT22;40782;47.264;11.330;2023-06-14T09:44:55;22.20;49.20
29547;DHT22;40782;47.264;11.330;2023-06-14T09:47:23;22.30;49.70
29547;DHT22;40782;47.264;11.330;2023-06-14T09:49:50;22.40;49.60
29547;DHT22;40782;47.264;11.330;2023-06-14T09:52:20;22.50;48.30
29547;DHT22;40782;47.264;11.330;2023-06-14T09:54:47;22.50;46.20
29547;DHT22;40782;47.264;11.330;2023-06-14T09:57:16;22.60;47.70
29547;DHT22;40782;47.264;11.330;2023-06-14T09:59:45;22.70;46.20
29547;DHT22;40782;47.264;11.330;2023-06-14T10:02:17;22.70;48.90
29547;DHT22;40782;47.264;11.330;2023-06-14T10:04:46;22.80;46.50
29547;DHT22;40782;47.264;11.330;2023-06-14T10:07:14;22.80;48.00
29547;DHT22;40782;47.264;11.330;2023-06-14T10:09:43;22.80;46.40
29547;DHT22;40782;47.264;11.330;2023-06-14T10:12:14;22.80;46.40
29547;DHT22;40782;47.264;11.330;2023-06-14T10:14:48;22.90;46.50
29547;DHT22;40782;47.264;11.330;2023-06-14T10:17:17;23.00;48.20
29547;DHT22;40782;47.264;11.330;2023-06-14T10:19:48;23.10;44.30
29547;DHT22;40782;47.264;11.330;2023-06-14T10:22:18;23.30;48.10
29547;DHT22;40782;47.264;11.330;2023-06-14T10:24:48;23.50;48.30
29547;DHT22;40782;47.264;11.330;2023-06-14T10:27:15;23.60;48.40
29547;DHT22;40782;47.264;11.330;2023-06-14T10:32:27;24.00;47.30
29547;DHT22;40782;47.264;11.330;2023-06-14T10:34:55;24.10;45.60
29547;DHT22;40782;47.264;11.330;2023-06-14T10:37:22;24.20;42.50
29547;DHT22;40782;47.264;11.330;2023-06-14T10:39:50;24.40;44.40
29547;DHT22;40782;47.264;11.330;2023-06-14T10:42:18;24.60;45.30
29547;DHT22;40782;47.264;11.330;2023-06-14T10:44:51;24.80;44.40
29547;DHT22;40782;47.264;11.330;2023-06-14T10:47:22;25.00;42.60
29547;DHT22;40782;47.264;11.330;2023-06-14T10:49:52;25.30;41.30
29547;DHT22;40782;47.264;11.330;2023-06-14T10:52:26;25.50;42.00
29547;DHT22;40782;47.264;11.330;2023-06-14T10:55:03;25.70;43.40
29547;DHT22;40782;47.264;11.330;2023-06-14T10:57:31;25.90;43.60
29547;DHT22;40782;47.264;11.330;2023-06-14T10:59:59;26.00;42.00
29547;DHT22;40782;47.264;11.330;2023-06-14T11:02:45;26.20;42.10
29547;DHT22;40782;47.264;11.330;2023-06-14T11:05:15;26.30;43.40
29547;DHT22;40782;47.264;11.330;2023-06-14T11:07:45;26.60;43.80
29547;DHT22;40782;47.264;11.330;2023-06-14T11:10:17;26.70;42.00
29547;DHT22;40782;47.264;11.330;2023-06-14T11:12:47;26.60;42.80
29547;DHT22;40782;47.264;11.330;2023-06-14T11:15:14;27.10;42.60
29547;DHT22;40782;47.264;11.330;2023-06-14T11:17:49;27.20;42.20
29547;DHT22;40782;47.264;11.330;2023-06-14T11:20:18;27.20;42.10
29547;DHT22;40782;47.264;11.330;2023-06-14T11:22:45;27.30;41.30
29547;DHT22;40782;47.264;11.330;2023-06-14T11:25:12;27.60;41.00
29547;DHT22;40782;47.264;11.330;2023-06-14T11:27:41;27.70;43.00
29547;DHT22;40782;47.264;11.330;2023-06-14T11:30:08;27.90;42.10
29547;DHT22;40782;47.264;11.330;2023-06-14T11:32:36;28.10;40.80
29547;DHT22;40782;47.264;11.330;2023-06-14T11:35:04;28.20;41.40
29547;DHT22;40782;47.264;11.330;2023-06-14T11:37:32;28.40;40.40
29547;DHT22;40782;47.264;11.330;2023-06-14T11:40:00;28.70;42.00
29547;DHT22;40782;47.264;11.330;2023-06-14T11:42:27;28.80;40.20
29547;DHT22;40782;47.264;11.330;2023-06-14T11:44:54;29.00;39.50
29547;DHT22;40782;47.264;11.330;2023-06-14T11:47:21;29.00;38.90
29547;DHT22;40782;47.264;11.330;2023-06-14T11:49:48;29.00;38.60
29547;DHT22;40782;47.264;11.330;2023-06-14T11:52:16;28.70;38.80
29547;DHT22;40782;47.264;11.330;2023-06-14T11:54:44;28.80;42.10
29547;DHT22;40782;47.264;11.330;2023-06-14T11:57:14;29.40;39.40
29547;DHT22;40782;47.264;11.330;2023-06-14T11:59:41;30.10;39.00
29547;DHT22;40782;47.264;11.330;2023-06-14T12:02:09;29.90;37.40
29547;DHT22;40782;47.264;11.330;2023-06-14T12:04:40;29.80;39.70
29547;DHT22;40782;47.264;11.330;2023-06-14T12:07:08;29.90;38.80
29547;DHT22;40782;47.264;11.330;2023-06-14T12:09:40;30.00;38.10
29547;DHT22;40782;47.264;11.330;2023-06-14T12:12:11;30.30;37.20
29547;DHT22;40782;47.264;11.330;2023-06-14T12:14:41;30.40;36.50
29547;DHT22;40782;47.264;11.330;2023-06-14T12:17:08;30.10;37.10
29547;DHT22;40782;47.264;11.330;2023-06-14T12:19:41;30.50;40.60
29547;DHT22;40782;47.264;11.330;2023-06-14T12:22:09;30.60;40.40
29547;DHT22;40782;47.264;11.330;2023-06-14T12:24:36;31.00;40.50
29547;DHT22;40782;47.264;11.330;2023-06-14T12:27:03;31.50;38.00
29547;DHT22;40782;47.264;11.330;2023-06-14T12:29:32;31.60;35.10
29547;DHT22;40782;47.264;11.330;2023-06-14T12:31:59;31.50;36.20
29547;DHT22;40782;47.264;11.330;2023-06-14T12:34:26;32.20;36.00
29547;DHT22;40782;47.264;11.330;2023-06-14T12:36:53;32.40;36.60
29547;DHT22;40782;47.264;11.330;2023-06-14T12:39:21;32.40;34.30
29547;DHT22;40782;47.264;11.330;2023-06-14T12:41:48;32.50;33.50
29547;DHT22;40782;47.264;11.330;2023-06-14T12:44:15;32.80;34.50
29547;DHT22;40782;47.264;11.330;2023-06-14T12:46:44;32.30;33.70
29547;DHT22;40782;47.264;11.330;2023-06-14T12:49:11;32.80;34.80
29547;DHT22;40782;47.264;11.330;2023-06-14T12:51:38;33.00;34.50
29547;DHT22;40782;47.264;11.330;2023-06-14T12:54:06;32.90;32.40
29547;DHT22;40782;47.264;11.330;2023-06-14T12:56:33;32.70;35.70
29547;DHT22;40782;47.264;11.330;2023-06-14T12:59:00;32.90;35.90
29547;DHT22;40782;47.264;11.330;2023-06-14T13:01:27;33.00;33.50
29547;DHT22;40782;47.264;11.330;2023-06-14T13:03:55;33.00;35.00
29547;DHT22;40782;47.264;11.330;2023-06-14T13:06:22;33.00;34.10
29547;DHT22;40782;47.264;11.330;2023-06-14T13:08:50;33.20;35.50
29547;DHT22;40782;47.264;11.330;2023-06-14T13:11:17;33.30;33.50
29547;DHT22;40782;47.264;11.330;2023-06-14T13:13:44;33.20;33.80
29547;DHT22;40782;47.264;11.330;2023-06-14T13:16:11;33.40;33.40
29547;DHT22;40782;47.264;11.330;2023-06-14T13:18:40;33.60;33.70
29547;DHT22;40782;47.264;11.330;2023-06-14T13:21:08;33.10;32.10
29547;DHT22;40782;47.264;11.330;2023-06-14T13:23:35;33.10;34.70
29547;DHT22;40782;47.264;11.330;2023-06-14T13:26:02;33.60;31.60
29547;DHT22;40782;47.264;11.330;2023-06-14T13:28:29;33.80;33.80
29547;DHT22;40782;47.264;11.330;2023-06-14T13:30:57;33.90;33.60
29547;DHT22;40782;47.264;11.330;2023-06-14T13:33:24;33.60;34.30
29547;DHT22;40782;47.264;11.330;2023-06-14T13:35:51;33.70;34.40
29547;DHT22;40782;47.264;11.330;2023-06-14T13:38:19;33.70;32.20
29547;DHT22;40782;47.264;11.330;2023-06-14T13:40:46;33.40;32.90
29547;DHT22;40782;47.264;11.330;2023-06-14T13:43:13;33.40;33.30
29547;DHT22;40782;47.264;11.330;2023-06-14T13:45:40;33.30;34.40
29547;DHT22;40782;47.264;11.330;2023-06-14T13:48:07;33.60;32.60
29547;DHT22;40782;47.264;11.330;2023-06-14T13:50:34;33.80;32.60
29547;DHT22;40782;47.264;11.330;2023-06-14T13:53:01;34.00;34.60
29547;DHT22;40782;47.264;11.330;2023-06-14T13:55:30;34.00;33.00
29547;DHT22;40782;47.264;11.330;2023-06-14T13:57:58;34.20;33.40
29547;DHT22;40782;47.264;11.330;2023-06-14T14:00:25;34.20;33.80
29547;DHT22;40782;47.264;11.330;2023-06-14T14:02:52;34.20;32.80
29547;DHT22;40782;47.264;11.330;2023-06-14T14:05:20;34.50;34.90
29547;DHT22;40782;47.264;11.330;2023-06-14T14:07:51;34.50;33.50
29547;DHT22;40782;47.264;11.330;2023-06-14T14:10:19;34.90;33.50
29547;DHT22;40782;47.264;11.330;2023-06-14T14:12:47;35.00;33.00
29547;DHT22;40782;47.264;11.330;2023-06-14T14:15:14;35.20;33.10
29547;DHT22;40782;47.264;11.330;2023-06-14T14:17:41;35.30;31.30
29547;DHT22;40782;47.264;11.330;2023-06-14T14:20:08;35.10;31.90
29547;DHT22;40782;47.264;11.330;2023-06-14T14:22:38;35.10;32.70
29547;DHT22;40782;47.264;11.330;2023-06-14T14:25:05;35.10;32.20
29547;DHT22;40782;47.264;11.330;2023-06-14T14:27:32;35.00;31.10
29547;DHT22;40782;47.264;11.330;2023-06-14T14:30:00;34.60;31.90
29547;DHT22;40782;47.264;11.330;2023-06-14T14:32:27;34.50;31.80
29547;DHT22;40782;47.264;11.330;2023-06-14T14:34:54;34.50;33.10
29547;DHT22;40782;47.264;11.330;2023-06-14T14:37:21;34.60;33.20
29547;DHT22;40782;47.264;11.330;2023-06-14T14:39:48;34.70;33.70
29547;DHT22;40782;47.264;11.330;2023-06-14T14:42:15;34.50;31.60
29547;DHT22;40782;47.264;11.330;2023-06-14T14:44:44;34.40;32.70
29547;DHT22;40782;47.264;11.330;2023-06-14T14:47:12;34.60;33.30
29547;DHT22;40782;47.264;11.330;2023-06-14T14:49:39;34.30;31.70
29547;DHT22;40782;47.264;11.330;2023-06-14T14:52:07;33.90;32.70
29547;DHT22;40782;47.264;11.330;2023-06-14T14:54:34;33.60;33.40
29547;DHT22;40782;47.264;11.330;2023-06-14T14:57:01;33.70;33.00
29547;DHT22;40782;47.264;11.330;2023-06-14T14:59:28;33.90;32.80
29547;DHT22;40782;47.264;11.330;2023-06-14T15:01:56;33.70;33.10
29547;DHT22;40782;47.264;11.330;2023-06-14T15:04:24;33.40;32.90
29547;DHT22;40782;47.264;11.330;2023-06-14T15:06:51;33.00;33.70
29547;DHT22;40782;47.264;11.330;2023-06-14T15:09:18;32.90;33.60
29547;DHT22;40782;47.264;11.330;2023-06-14T15:11:45;33.10;34.70
29547;DHT22;40782;47.264;11.330;2023-06-14T15:14:12;33.10;33.80
29547;DHT22;40782;47.264;11.330;2023-06-14T15:16:40;33.40;32.10
29547;DHT22;40782;47.264;11.330;2023-06-14T15:19:07;33.40;33.80
29547;DHT22;40782;47.264;11.330;2023-06-14T15:21:35;33.80;34.00